Time;durP1;ratioP1;P1;durP2;ratioP2;P2;SDS_P1;SDS_P2;PMS_P1;PMS_P2;Temp;Humidity;BMP_temperature;BMP_pressure;BME280_temperature;BME280_humidity;BME280_pressure;Samples;Min_cycle;Max_cycle;Signal;HPM_P1;HPM_P2
2023/09/22 00:00:59;;;;;;;9.98;7.97;;;14.00;99.90;;;;;;5053497;28;20613;-51
2023/09/22 00:03:26;;;;;;;10.77;7.45;;;14.00;99.90;;;;;;5053085;28;20286;-50
2023/09/22 00:05:52;;;;;;;10.15;7.78;;;14.00;99.90;;;;;;5053633;28;20198;-52
2023/09/22 00:08:18;;;;;;;8.88;7.10;;;14.10;99.90;;;;;;5053242;28;20624;-51
2023/09/22 00:10:45;;;;;;;10.00;6.95;;;13.90;99.90;;;;;;5053366;28;20175;-48
2023/09/22 00:13:10;;;;;;;10.07;7.70;;;14.00;99.90;;;;;;5053313;28;20172;-47
2023/09/22 00:15:36;;;;;;;7.65;6.18;;;13.90;99.90;;;;;;5053107;28;20182;-46
2023/09/22 00:18:02;;;;;;;9.48;6.95;;;13.90;99.90;;;;;;5053286;28;20175;-51
2023/09/22 00:20:29;;;;;;;8.45;6.40;;;13.90;99.90;;;;;;5053172;28;20549;-51
2023/09/22 00:22:54;;;;;;;8.45;6.32;;;14.00;99.90;;;;;;5053162;28;20183;-51
2023/09/22 00:25:22;;;;;;;8.65;6.97;;;14.00;99.90;;;;;;5053205;28;20178;-50
2023/09/22 00:27:48;;;;;;;9.93;6.70;;;14.00;99.90;;;;;;5053253;28;20186;-51
2023/09/22 00:30:13;;;;;;;9.43;6.47;;;14.10;99.90;;;;;;5053150;28;20564;-48
2023/09/22 00:32:39;;;;;;;8.20;6.15;;;14.10;99.90;;;;;;5056349;28;20191;-50
2023/09/22 00:35:06;;;;;;;9.68;6.38;;;14.10;99.90;;;;;;5057099;28;20609;-50
2023/09/22 00:37:35;;;;;;;11.25;6.55;;;14.20;99.90;;;;;;5057180;28;20632;-50
2023/09/22 00:40:01;;;;;;;8.75;6.22;;;14.20;99.90;;;;;;5057096;28;20175;-50
2023/09/22 00:42:27;;;;;;;10.65;6.43;;;14.20;99.90;;;;;;5057031;28;20613;-50
2023/09/22 00:44:53;;;;;;;11.05;5.75;;;14.10;99.90;;;;;;5057012;28;20183;-49
2023/09/22 00:47:20;;;;;;;7.40;5.50;;;14.20;99.90;;;;;;5056913;28;20509;-49
2023/09/22 00:49:48;;;;;;;10.10;5.53;;;14.20;99.90;;;;;;5056789;28;20211;-50
2023/09/22 00:52:14;;;;;;;7.45;5.75;;;14.20;99.90;;;;;;5056828;28;20176;-50
2023/09/22 00:54:40;;;;;;;8.10;5.50;;;14.20;99.90;;;;;;5056896;28;20683;-50
2023/09/22 00:57:07;;;;;;;9.52;5.40;;;14.10;99.90;;;;;;5056680;28;20275;-48
2023/09/22 00:59:33;;;;;;;7.45;5.07;;;14.30;99.90;;;;;;5056723;28;20254;-51
2023/09/22 01:02:00;;;;;;;8.50;5.03;;;14.30;99.90;;;;;;5056596;28;20171;-50
2023/09/22 01:04:26;;;;;;;6.43;4.80;;;14.30;99.90;;;;;;5056613;28;20168;-49
2023/09/22 01:06:52;;;;;;;7.53;4.70;;;14.30;99.90;;;;;;5056266;28;20175;-48
2023/09/22 01:09:18;;;;;;;7.82;4.70;;;14.30;99.90;;;;;;5056214;28;20766;-51
2023/09/22 01:11:44;;;;;;;7.22;4.38;;;14.30;99.90;;;;;;5056512;28;20183;-49
2023/09/22 01:14:10;;;;;;;8.55;4.70;;;14.30;99.90;;;;;;5056527;28;20171;-47
2023/09/22 01:16:37;;;;;;;5.35;3.92;;;14.20;99.90;;;;;;5056353;28;20167;-48
2023/09/22 01:19:10;;;;;;;6.85;4.28;;;14.30;99.90;;;;;;5056231;28;20628;-50
2023/09/22 01:21:35;;;;;;;8.15;4.22;;;14.30;99.90;;;;;;5056406;28;20183;-50
2023/09/22 01:24:04;;;;;;;7.45;3.50;;;14.30;99.90;;;;;;5056011;28;20644;-48
2023/09/22 01:26:30;;;;;;;9.32;4.53;;;14.30;99.90;;;;;;5056197;28;20174;-52
2023/09/22 01:28:55;;;;;;;5.72;3.78;;;14.30;99.90;;;;;;5054884;28;20202;-47
2023/09/22 01:31:21;;;;;;;7.53;4.10;;;14.30;99.90;;;;;;5056106;28;20237;-51
2023/09/22 01:33:47;;;;;;;5.07;3.90;;;14.30;99.90;;;;;;5056052;28;20237;-48
2023/09/22 01:36:16;;;;;;;7.78;3.75;;;14.30;99.90;;;;;;5056024;28;20262;-49
2023/09/22 01:38:42;;;;;;;6.57;4.10;;;14.30;99.90;;;;;;5055936;28;20183;-48
2023/09/22 01:41:07;;;;;;;7.65;4.30;;;14.40;99.90;;;;;;5055909;28;20690;-52
2023/09/22 01:43:35;;;;;;;7.57;4.38;;;14.40;99.90;;;;;;5055705;28;20176;-50
2023/09/22 01:46:00;;;;;;;9.90;4.13;;;14.40;99.90;;;;;;5055799;28;20225;-52
2023/09/22 01:48:26;;;;;;;8.55;4.38;;;14.40;99.90;;;;;;5055717;28;20180;-46
2023/09/22 01:50:52;;;;;;;6.20;4.30;;;14.40;99.90;;;;;;5055667;28;20182;-48
2023/09/22 01:53:18;;;;;;;7.82;3.95;;;14.40;99.90;;;;;;5055627;28;20172;-48
2023/09/22 01:55:45;;;;;;;5.78;4.20;;;14.40;99.90;;;;;;5055588;28;20522;-49
2023/09/22 01:58:11;;;;;;;8.15;4.22;;;14.40;99.90;;;;;;5055521;28;20183;-49
2023/09/22 02:00:38;;;;;;;8.48;4.95;;;14.50;99.90;;;;;;5055493;28;20183;-49
2023/09/22 02:03:05;;;;;;;7.32;4.45;;;14.40;99.90;;;;;;5055487;28;20217;-47
2023/09/22 02:05:31;;;;;;;7.35;5.30;;;14.40;99.90;;;;;;5055414;28;20187;-51
2023/09/22 02:08:00;;;;;;;8.93;5.07;;;14.40;99.90;;;;;;5055459;28;20261;-49
2023/09/22 02:10:25;;;;;;;8.57;5.60;;;14.40;99.90;;;;;;5055395;28;20195;-48
2023/09/22 02:12:51;;;;;;;8.57;5.40;;;14.40;99.90;;;;;;5055542;28;20245;-48
2023/09/22 02:15:17;;;;;;;6.72;5.10;;;14.40;99.90;;;;;;5055279;28;20183;-49
2023/09/22 02:17:44;;;;;;;9.82;5.85;;;14.50;99.90;;;;;;5055563;28;20207;-48
2023/09/22 02:20:23;;;;;;;7.57;5.43;;;14.50;99.90;;;;;;5055126;28;20251;-51
2023/09/22 02:22:51;;;;;;;7.57;5.50;;;14.50;99.90;;;;;;5054975;28;20701;-50
2023/09/22 02:25:17;;;;;;;7.40;5.47;;;14.60;99.90;;;;;;5055964;28;20194;-51
2023/09/22 02:27:47;;;;;;;10.85;5.63;;;14.70;99.90;;;;;;5054974;28;20213;-49
2023/09/22 02:30:14;;;;;;;9.07;5.70;;;14.70;99.90;;;;;;5055083;28;20203;-49
2023/09/22 02:32:42;;;;;;;9.50;5.70;;;14.70;99.90;;;;;;5055164;28;20210;-48
2023/09/22 02:35:09;;;;;;;10.93;5.43;;;14.60;99.90;;;;;;5054660;28;20617;-48
2023/09/22 02:37:35;;;;;;;7.45;5.10;;;14.60;99.90;;;;;;5054806;28;20233;-51
2023/09/22 02:40:03;;;;;;;7.50;5.07;;;14.50;99.90;;;;;;5054777;28;20184;-50
2023/09/22 02:42:29;;;;;;;6.20;4.70;;;14.50;99.90;;;;;;5054735;28;20167;-52
2023/09/22 02:44:55;;;;;;;6.95;4.70;;;14.60;99.90;;;;;;5054690;28;20528;-51
2023/09/22 02:47:21;;;;;;;7.50;4.78;;;14.60;99.90;;;;;;5054628;28;20541;-50
2023/09/22 02:49:47;;;;;;;7.28;4.25;;;14.60;99.90;;;;;;5054297;28;20337;-48
2023/09/22 02:52:14;;;;;;;6.28;4.10;;;14.60;99.90;;;;;;5054576;28;20582;-48
2023/09/22 02:54:39;;;;;;;5.10;3.40;;;14.50;99.90;;;;;;5053912;28;20229;-51
2023/09/22 02:57:06;;;;;;;8.23;3.75;;;14.40;99.90;;;;;;5054471;28;20175;-52
2023/09/22 02:59:32;;;;;;;5.63;3.30;;;14.40;99.90;;;;;;5054423;28;20210;-52
2023/09/22 03:01:58;;;;;;;6.57;3.20;;;14.40;99.90;;;;;;5054092;28;20203;-51
2023/09/22 03:04:24;;;;;;;3.80;3.25;;;14.50;99.90;;;;;;5054299;28;20522;-51
2023/09/22 03:06:49;;;;;;;4.18;2.70;;;14.40;99.90;;;;;;5054020;28;20167;-51
2023/09/22 03:09:15;;;;;;;3.40;2.50;;;14.40;99.90;;;;;;5053925;28;20238;-52
2023/09/22 03:11:41;;;;;;;6.10;2.90;;;14.30;99.90;;;;;;5054230;28;20198;-49
2023/09/22 03:14:07;;;;;;;5.88;2.42;;;14.30;99.90;;;;;;5054054;28;20266;-53
2023/09/22 03:16:33;;;;;;;5.38;2.80;;;14.40;99.90;;;;;;5054142;28;20170;-48
2023/09/22 03:18:59;;;;;;;5.70;2.92;;;14.40;99.90;;;;;;5054083;28;20183;-50
2023/09/22 03:21:26;;;;;;;5.03;2.60;;;14.30;99.90;;;;;;5053581;28;20226;-50
2023/09/22 03:23:53;;;;;;;5.47;2.47;;;14.30;99.90;;;;;;5053640;28;20624;-50
2023/09/22 03:26:20;;;;;;;4.95;2.80;;;14.20;99.90;;;;;;5053966;28;20179;-53
2023/09/22 03:28:46;;;;;;;4.55;2.60;;;14.20;99.90;;;;;;5053530;28;20195;-51
2023/09/22 03:31:12;;;;;;;3.72;2.42;;;14.20;99.90;;;;;;5053578;28;20172;-50
2023/09/22 03:33:41;;;;;;;4.90;2.20;;;14.10;99.90;;;;;;5053827;28;20536;-50
2023/09/22 03:36:12;;;;;;;8.63;2.83;;;14.10;99.90;;;;;;5053884;28;20510;-50
2023/09/22 03:38:41;;;;;;;4.88;2.00;;;14.10;99.90;;;;;;5053719;28;20163;-52
2023/09/22 03:41:07;;;;;;;3.50;2.10;;;14.10;99.90;;;;;;5053897;28;20198;-52
2023/09/22 03:43:34;;;;;;;3.20;2.30;;;14.00;99.90;;;;;;5053678;28;20624;-50
2023/09/22 03:45:59;;;;;;;5.32;2.30;;;14.00;99.90;;;;;;5053571;28;20179;-52
2023/09/22 03:48:25;;;;;;;6.10;2.40;;;14.00;99.90;;;;;;5053457;28;20179;-50
2023/09/22 03:50:51;;;;;;;5.13;2.17;;;14.00;99.90;;;;;;5052454;28;20261;-47
2023/09/22 03:53:17;;;;;;;4.32;1.90;;;13.90;99.90;;;;;;5053483;28;20198;-47
2023/09/22 03:55:44;;;;;;;4.05;2.05;;;13.90;99.90;;;;;;5053572;28;20191;-51
2023/09/22 03:58:10;;;;;;;3.42;1.83;;;13.90;99.90;;;;;;5053751;28;20175;-49
2023/09/22 04:00:37;;;;;;;4.00;1.90;;;13.80;99.90;;;;;;5053474;28;20624;-50
2023/09/22 04:03:05;;;;;;;5.53;1.83;;;13.80;99.90;;;;;;5053335;28;20178;-51
2023/09/22 04:05:30;;;;;;;3.83;1.90;;;13.70;99.90;;;;;;5052753;28;20179;-49
2023/09/22 04:07:57;;;;;;;4.72;2.10;;;13.80;99.90;;;;;;5053125;28;20171;-51
2023/09/22 04:10:26;;;;;;;3.28;1.90;;;13.60;99.90;;;;;;5053313;28;20206;-52
2023/09/22 04:12:51;;;;;;;4.40;1.63;;;13.70;99.90;;;;;;5053331;28;20179;-50
2023/09/22 04:15:17;;;;;;;4.15;2.10;;;13.60;99.90;;;;;;5053446;28;20179;-52
2023/09/22 04:17:45;;;;;;;3.33;1.58;;;13.60;99.90;;;;;;5053311;28;20176;-49
2023/09/22 04:20:12;;;;;;;4.50;1.83;;;13.60;99.90;;;;;;5053166;28;20231;-49
2023/09/22 04:22:38;;;;;;;5.50;2.03;;;13.60;99.90;;;;;;5052712;28;20183;-50
2023/09/22 04:25:10;;;;;;;3.72;2.00;;;13.60;99.90;;;;;;5053224;28;20167;-51
2023/09/22 04:27:42;;;;;;;2.50;1.50;;;13.50;99.90;;;;;;5053219;28;20163;-51
2023/09/22 04:30:11;;;;;;;5.32;1.60;;;13.50;99.90;;;;;;5053195;28;20244;-48
2023/09/22 04:32:37;;;;;;;6.25;1.85;;;13.40;99.90;;;;;;5053103;28;20294;-51
2023/09/22 04:35:09;;;;;;;4.47;1.90;;;13.50;99.90;;;;;;5053084;28;20187;-48
2023/09/22 04:37:35;;;;;;;6.72;1.88;;;13.50;99.90;;;;;;5052169;28;20160;-49
2023/09/22 04:40:11;;;;;;;4.03;1.90;;;13.40;99.90;;;;;;5052922;28;20241;-52
2023/09/22 04:42:37;;;;;;;2.55;1.45;;;13.50;99.90;;;;;;5050235;28;20161;-50
2023/09/22 04:45:04;;;;;;;3.22;1.38;;;13.40;99.90;;;;;;5052832;28;20245;-51
2023/09/22 04:47:29;;;;;;;4.78;1.83;;;13.40;99.90;;;;;;5052763;28;20175;-50
2023/09/22 04:49:57;;;;;;;2.30;1.67;;;13.40;99.90;;;;;;5052869;28;20286;-51
2023/09/22 04:52:23;;;;;;;4.10;1.80;;;13.40;99.90;;;;;;5052794;28;20662;-47
2023/09/22 04:54:48;;;;;;;3.90;2.05;;;13.30;99.90;;;;;;5035052;28;20270;-50
2023/09/22 04:57:15;;;;;;;4.13;1.48;;;13.30;99.90;;;;;;5052852;28;20171;-51
2023/09/22 04:59:43;;;;;;;3.20;1.80;;;13.30;99.90;;;;;;5050582;28;20192;-48
2023/09/22 05:02:11;;;;;;;3.10;1.63;;;13.30;99.90;;;;;;5049225;28;20258;-47
2023/09/22 05:04:37;;;;;;;1.75;1.35;;;13.20;99.90;;;;;;5052321;28;20266;-46
2023/09/22 05:07:02;;;;;;;3.15;1.50;;;13.30;99.90;;;;;;5052794;28;20214;-47
2023/09/22 05:09:28;;;;;;;2.15;1.58;;;13.30;99.90;;;;;;5052788;28;20653;-49
2023/09/22 05:11:54;;;;;;;5.35;1.70;;;13.20;99.90;;;;;;5052773;28;20229;-52
2023/09/22 05:14:19;;;;;;;5.38;1.77;;;13.20;99.90;;;;;;5052461;28;20183;-51
2023/09/22 05:16:45;;;;;;;4.35;1.75;;;13.20;99.90;;;;;;5052483;28;20175;-48
2023/09/22 05:19:11;;;;;;;3.10;1.80;;;13.20;99.90;;;;;;5054880;28;20536;-46
2023/09/22 05:21:38;;;;;;;2.97;1.63;;;13.30;99.90;;;;;;5056300;28;20168;-49
2023/09/22 05:24:05;;;;;;;3.83;1.58;;;13.30;99.90;;;;;;5055697;28;20365;-49
2023/09/22 05:26:30;;;;;;;1.88;1.50;;;13.20;99.90;;;;;;5056191;28;20175;-50
2023/09/22 05:28:56;;;;;;;3.60;1.60;;;13.30;99.90;;;;;;5056506;28;20603;-49
2023/09/22 05:31:21;;;;;;;2.70;1.42;;;13.20;99.90;;;;;;5056127;28;20175;-51
2023/09/22 05:33:47;;;;;;;5.13;1.55;;;13.10;99.90;;;;;;5056065;28;20176;-51
2023/09/22 05:36:13;;;;;;;5.13;1.48;;;13.10;99.90;;;;;;5054827;28;20179;-48
2023/09/22 05:38:39;;;;;;;4.03;1.60;;;13.20;99.90;;;;;;5055853;28;20278;-47
2023/09/22 05:41:05;;;;;;;2.13;1.38;;;13.00;99.90;;;;;;5055848;28;20270;-47
2023/09/22 05:43:32;;;;;;;3.50;1.40;;;13.10;99.90;;;;;;5055804;28;20690;-51
2023/09/22 05:45:58;;;;;;;3.38;1.38;;;13.10;99.90;;;;;;5055825;28;20638;-47
2023/09/22 05:48:24;;;;;;;3.65;1.48;;;13.00;99.90;;;;;;5055938;28;20196;-48
2023/09/22 05:50:57;;;;;;;3.22;1.38;;;12.90;99.90;;;;;;5055703;28;20218;-47
2023/09/22 05:53:25;;;;;;;4.00;1.30;;;13.00;99.90;;;;;;5055358;28;20173;-48
2023/09/22 05:56:07;;;;;;;2.53;1.30;;;13.10;99.90;;;;;;5053922;28;20191;-47
2023/09/22 05:58:37;;;;;;;2.40;1.40;;;13.00;99.90;;;;;;5053553;28;20214;-52
2023/09/22 06:01:10;;;;;;;4.78;1.40;;;13.00;99.90;;;;;;5053489;28;20168;-50
2023/09/22 06:03:37;;;;;;;3.33;1.42;;;13.00;99.90;;;;;;5053400;28;20254;-49
2023/09/22 06:06:11;;;;;;;4.20;1.63;;;13.00;99.90;;;;;;5053745;28;20206;-51
2023/09/22 06:08:37;;;;;;;3.58;1.50;;;13.10;99.90;;;;;;5052930;28;20178;-48
2023/09/22 06:11:07;;;;;;;4.35;1.40;;;13.10;99.90;;;;;;5053937;28;20186;-49
2023/09/22 06:13:34;;;;;;;2.78;1.40;;;13.10;99.90;;;;;;5053723;28;20198;-49
2023/09/22 06:16:00;;;;;;;1.92;1.30;;;13.10;99.90;;;;;;5054952;28;20613;-49
2023/09/22 06:18:26;;;;;;;3.67;1.50;;;13.10;99.90;;;;;;5054854;28;20174;-48
2023/09/22 06:20:58;;;;;;;4.20;1.42;;;13.10;99.90;;;;;;5054455;28;20235;-51
2023/09/22 06:23:25;;;;;;;3.95;1.45;;;13.20;99.90;;;;;;5054710;28;20202;-52
2023/09/22 06:25:53;;;;;;;4.05;1.60;;;13.20;99.90;;;;;;5055129;28;20178;-47
2023/09/22 06:28:18;;;;;;;4.00;1.40;;;13.30;99.90;;;;;;5054651;28;20180;-51
2023/09/22 06:30:46;;;;;;;3.40;1.58;;;13.30;99.90;;;;;;5054117;28;20556;-46
2023/09/22 06:33:14;;;;;;;4.10;1.75;;;13.30;99.90;;;;;;5054885;28;20686;-52
2023/09/22 06:35:40;;;;;;;4.18;1.50;;;13.30;99.90;;;;;;5054919;28;20249;-47
2023/09/22 06:38:06;;;;;;;2.95;1.40;;;13.40;99.90;;;;;;5054848;28;20255;-50
2023/09/22 06:40:36;;;;;;;2.78;1.25;;;13.40;99.90;;;;;;5054841;28;20176;-51
2023/09/22 06:43:04;;;;;;;5.53;1.35;;;13.60;99.90;;;;;;5054985;28;20175;-46
2023/09/22 06:45:35;;;;;;;2.90;1.45;;;13.40;99.90;;;;;;5054663;28;20179;-49
2023/09/22 06:48:00;;;;;;;4.22;1.17;;;13.40;99.90;;;;;;5054704;28;20191;-48
2023/09/22 06:50:27;;;;;;;1.60;1.10;;;13.50;99.90;;;;;;5054584;28;20614;-48
2023/09/22 06:52:53;;;;;;;2.25;1.20;;;13.50;99.90;;;;;;5054298;28;20721;-50
2023/09/22 06:55:19;;;;;;;4.05;1.30;;;13.40;99.90;;;;;;5054278;28;20172;-47
2023/09/22 06:57:44;;;;;;;2.97;1.50;;;13.30;99.90;;;;;;5054468;28;20179;-49
2023/09/22 07:00:22;;;;;;;2.33;1.30;;;13.30;99.90;;;;;;5054184;28;20171;-50
2023/09/22 07:02:48;;;;;;;1.90;1.33;;;13.40;99.90;;;;;;5054418;28;20159;-49
2023/09/22 07:05:21;;;;;;;3.35;1.67;;;13.40;99.90;;;;;;5054300;28;20175;-51
2023/09/22 07:07:47;;;;;;;4.10;1.60;;;13.60;99.90;;;;;;5053044;28;20175;-48
2023/09/22 07:10:13;;;;;;;3.20;1.90;;;13.60;99.90;;;;;;5054176;28;20229;-51
2023/09/22 07:12:40;;;;;;;3.88;1.60;;;13.60;99.90;;;;;;5054187;28;20203;-50
2023/09/22 07:15:07;;;;;;;3.40;1.40;;;13.70;99.90;;;;;;5054197;28;20513;-47
2023/09/22 07:17:33;;;;;;;3.00;1.40;;;13.60;99.90;;;;;;5054083;28;20167;-51
2023/09/22 07:20:01;;;;;;;4.93;1.70;;;13.70;99.90;;;;;;5053759;28;20226;-50
2023/09/22 07:22:33;;;;;;;5.28;1.90;;;13.90;99.90;;;;;;5053964;28;20176;-47
2023/09/22 07:24:59;;;;;;;2.38;1.35;;;13.90;99.90;;;;;;5054022;28;20163;-47
2023/09/22 07:27:25;;;;;;;4.15;1.40;;;14.00;99.90;;;;;;5053897;28;20168;-49
2023/09/22 07:29:51;;;;;;;3.88;1.65;;;14.00;99.90;;;;;;5053563;28;20214;-49
2023/09/22 07:32:17;;;;;;;3.10;1.60;;;13.90;99.90;;;;;;5053947;28;20236;-51
2023/09/22 07:34:43;;;;;;;2.92;1.40;;;14.00;99.90;;;;;;5053734;28;20172;-49
2023/09/22 07:37:12;;;;;;;3.83;1.40;;;14.00;99.90;;;;;;5053598;28;20179;-51
2023/09/22 07:39:41;;;;;;;3.13;1.60;;;14.10;99.90;;;;;;5052579;28;20175;-48
2023/09/22 07:42:09;;;;;;;6.20;1.65;;;14.00;99.90;;;;;;5053660;28;20176;-47
2023/09/22 07:44:35;;;;;;;4.25;1.60;;;14.10;99.90;;;;;;5053706;28;20233;-48
2023/09/22 07:47:03;;;;;;;3.50;1.50;;;14.10;99.90;;;;;;5053667;28;20569;-46
2023/09/22 07:49:29;;;;;;;1.83;1.50;;;14.10;99.90;;;;;;5053467;28;20674;-51
2023/09/22 07:51:55;;;;;;;1.92;1.48;;;14.20;99.90;;;;;;5053317;28;20184;-51
2023/09/22 07:54:21;;;;;;;3.95;1.77;;;14.00;99.90;;;;;;5053044;28;20533;-50
2023/09/22 07:56:47;;;;;;;3.75;1.63;;;14.00;99.90;;;;;;5053587;28;20167;-47
2023/09/22 07:59:14;;;;;;;3.22;1.50;;;13.80;99.90;;;;;;5053208;28;20228;-47
2023/09/22 08:01:42;;;;;;;5.22;1.70;;;13.80;99.90;;;;;;5053407;28;20180;-48
2023/09/22 08:04:12;;;;;;;2.90;1.33;;;13.90;99.90;;;;;;5053404;28;20190;-49
2023/09/22 08:06:38;;;;;;;3.00;1.30;;;13.90;99.90;;;;;;5053444;28;20609;-48
2023/09/22 08:09:04;;;;;;;3.40;1.52;;;14.00;99.90;;;;;;5052678;28;20195;-52
2023/09/22 08:11:33;;;;;;;2.53;1.58;;;14.10;99.90;;;;;;5052829;28;20187;-50
2023/09/22 08:13:59;;;;;;;2.33;1.40;;;14.20;99.90;;;;;;5052463;28;20186;-50
2023/09/22 08:16:26;;;;;;;3.25;1.83;;;14.30;99.90;;;;;;5052553;28;20215;-48
2023/09/22 08:18:53;;;;;;;2.40;1.60;;;14.40;99.90;;;;;;5052125;28;20332;-48
2023/09/22 08:21:21;;;;;;;4.40;1.67;;;14.60;99.90;;;;;;5052664;28;20231;-51
2023/09/22 08:23:47;;;;;;;3.00;1.52;;;14.60;99.90;;;;;;5052513;28;20176;-49
2023/09/22 08:26:17;;;;;;;4.05;1.63;;;14.60;99.90;;;;;;5052584;28;20254;-48
2023/09/22 08:28:44;;;;;;;3.00;1.35;;;14.60;99.90;;;;;;5052443;28;20513;-50
2023/09/22 08:31:11;;;;;;;2.92;1.50;;;14.60;99.90;;;;;;5052731;28;20245;-52
2023/09/22 08:33:37;;;;;;;3.08;1.33;;;14.50;99.90;;;;;;5052406;28;20629;-49
2023/09/22 08:36:03;;;;;;;2.08;1.30;;;14.60;99.90;;;;;;5052433;28;20182;-49
2023/09/22 08:38:31;;;;;;;3.58;1.30;;;14.60;99.90;;;;;;5052315;28;20179;-48
2023/09/22 08:40:59;;;;;;;2.97;1.50;;;14.60;99.90;;;;;;5052361;28;20258;-49
2023/09/22 08:43:25;;;;;;;1.98;1.30;;;14.50;99.90;;;;;;5052389;28;20195;-51
2023/09/22 08:45:51;;;;;;;3.88;1.60;;;14.60;99.90;;;;;;5052293;28;20176;-51
2023/09/22 08:48:16;;;;;;;3.00;1.30;;;14.60;99.90;;;;;;5051998;28;20229;-52
2023/09/22 08:50:44;;;;;;;3.47;1.35;;;14.50;99.90;;;;;;5052118;28;20603;-50
2023/09/22 08:53:11;;;;;;;2.33;1.42;;;14.60;99.90;;;;;;5054152;28;20182;-48
2023/09/22 08:55:38;;;;;;;3.28;1.25;;;14.60;99.90;;;;;;5056100;28;20187;-51
2023/09/22 08:58:04;;;;;;;1.75;1.20;;;14.60;99.90;;;;;;5055970;28;20183;-48
2023/09/22 09:00:30;;;;;;;3.00;1.25;;;14.70;99.90;;;;;;5055914;28;20532;-50
2023/09/22 09:03:08;;;;;;;2.53;1.17;;;14.80;99.90;;;;;;5055860;28;20186;-48
2023/09/22 09:05:36;;;;;;;1.88;1.38;;;14.80;99.90;;;;;;5055832;28;20171;-48
2023/09/22 09:08:24;;;;;;;3.63;1.05;;;14.90;99.90;;;;;;5055811;28;20186;-48
2023/09/22 09:10:50;;;;;;;2.60;1.10;;;14.90;99.90;;;;;;5055386;28;20670;-47
2023/09/22 09:13:23;;;;;;;4.20;1.10;;;14.90;99.90;;;;;;5055748;28;20171;-52
2023/09/22 09:15:54;;;;;;;3.38;1.20;;;14.90;99.90;;;;;;5055804;28;20246;-51
2023/09/22 09:18:24;;;;;;;3.60;1.17;;;14.90;99.90;;;;;;5055619;28;20179;-50
2023/09/22 09:21:15;;;;;;;2.92;0.90;;;15.00;99.90;;;;;;5055631;28;20231;-51
2023/09/22 09:23:55;;;;;;;3.17;1.38;;;15.10;99.90;;;;;;5055425;28;20635;-50
2023/09/22 09:26:24;;;;;;;5.28;1.48;;;15.10;99.90;;;;;;5055564;28;20175;-50
2023/09/22 09:28:50;;;;;;;3.83;1.50;;;15.20;99.90;;;;;;5055426;28;20180;-51
2023/09/22 09:31:18;;;;;;;2.90;1.30;;;15.20;99.90;;;;;;5055452;28;20202;-49
2023/09/22 09:33:51;;;;;;;3.00;1.40;;;15.30;99.90;;;;;;5053735;28;20589;-48
2023/09/22 09:36:17;;;;;;;2.80;1.00;;;15.30;99.90;;;;;;5055719;28;20187;-50
2023/09/22 09:38:43;;;;;;;2.20;1.20;;;15.30;99.90;;;;;;5055336;28;20252;-50
2023/09/22 09:41:10;;;;;;;1.60;0.90;;;15.30;99.90;;;;;;5055298;28;20178;-48
2023/09/22 09:43:41;;;;;;;2.53;1.30;;;15.40;99.90;;;;;;5055173;28;20175;-52
2023/09/22 09:46:08;;;;;;;1.23;1.00;;;15.40;99.90;;;;;;5054123;28;20183;-52
2023/09/22 09:48:39;;;;;;;3.25;1.30;;;15.30;99.90;;;;;;5055289;28;20171;-52
2023/09/22 09:51:11;;;;;;;2.72;0.82;;;15.20;99.90;;;;;;5055061;28;20175;-49
2023/09/22 09:53:46;;;;;;;2.90;1.08;;;15.20;99.90;;;;;;5054782;28;20630;-52
2023/09/22 09:56:17;;;;;;;4.22;1.33;;;15.20;99.90;;;;;;5054986;28;20179;-51
2023/09/22 09:58:45;;;;;;;3.58;1.33;;;15.30;99.90;;;;;;5054922;28;20172;-51
2023/09/22 10:01:12;;;;;;;4.20;1.25;;;15.40;99.90;;;;;;5054746;28;20183;-49
2023/09/22 10:03:39;;;;;;;3.58;1.50;;;15.60;99.90;;;;;;5054667;28;20179;-52
2023/09/22 10:06:09;;;;;;;3.13;1.20;;;15.50;99.90;;;;;;5054677;28;20234;-49
2023/09/22 10:08:37;;;;;;;2.60;1.10;;;15.50;99.90;;;;;;5054329;28;20624;-51
2023/09/22 10:11:05;;;;;;;2.00;1.20;;;15.50;99.90;;;;;;5054620;28;20245;-49
2023/09/22 10:13:33;;;;;;;3.00;1.10;;;15.60;99.90;;;;;;5054606;28;20271;-52
2023/09/22 10:16:06;;;;;;;1.17;0.90;;;15.80;99.90;;;;;;5054918;28;20171;-51
2023/09/22 10:18:55;;;;;;;2.53;1.00;;;16.00;99.90;;;;;;5054771;28;20593;-48
2023/09/22 10:21:49;;;;;;;2.30;1.25;;;16.20;99.90;;;;;;5054766;28;20269;-47
2023/09/22 10:24:17;;;;;;;2.47;1.20;;;16.20;99.90;;;;;;5054384;28;20164;-51
2023/09/22 10:27:14;;;;;;;2.08;1.10;;;16.20;99.90;;;;;;5054458;28;20277;-49
2023/09/22 10:29:42;;;;;;;2.67;1.20;;;16.10;99.90;;;;;;5053461;28;20230;-50
2023/09/22 10:32:27;;;;;;;4.53;1.40;;;16.10;99.90;;;;;;5054228;28;20175;-51
2023/09/22 10:35:09;;;;;;;1.83;1.13;;;16.20;99.90;;;;;;5054146;28;20585;-48
2023/09/22 10:37:36;;;;;;;3.03;1.10;;;16.30;99.90;;;;;;5054047;28;20622;-52
2023/09/22 10:40:12;;;;;;;3.30;1.10;;;16.20;99.90;;;;;;5053971;28;20184;-52
2023/09/22 10:42:46;;;;;;;2.50;1.05;;;16.30;99.90;;;;;;5054233;28;20513;-48
2023/09/22 10:45:13;;;;;;;2.75;1.13;;;16.30;99.90;;;;;;5054181;28;20250;-49
2023/09/22 10:47:52;;;;;;;2.35;0.90;;;16.30;99.90;;;;;;5053890;28;20186;-49
2023/09/22 10:50:32;;;;;;;3.17;1.20;;;16.20;99.90;;;;;;5053894;28;20571;-52
2023/09/22 10:53:05;;;;;;;2.13;1.20;;;16.10;99.90;;;;;;5053880;28;20171;-46
2023/09/22 10:55:51;;;;;;;3.10;1.15;;;16.00;99.90;;;;;;5053833;28;20199;-47
2023/09/22 10:58:20;;;;;;;2.33;0.90;;;15.90;99.90;;;;;;5053769;28;20155;-47
2023/09/22 11:01:07;;;;;;;3.55;1.20;;;16.00;99.90;;;;;;5053674;28;20172;-51
2023/09/22 11:03:33;;;;;;;2.35;0.90;;;16.20;99.90;;;;;;5053699;28;20577;-47
2023/09/22 11:06:03;;;;;;;2.45;1.05;;;16.10;99.90;;;;;;5053639;28;20182;-50
2023/09/22 11:08:29;;;;;;;1.48;1.00;;;16.10;99.90;;;;;;5053610;28;20164;-48
2023/09/22 11:10:56;;;;;;;2.25;1.10;;;16.00;99.90;;;;;;5053215;28;20199;-51
2023/09/22 11:13:22;;;;;;;4.18;1.35;;;16.00;99.90;;;;;;5053222;28;20185;-52
2023/09/22 11:15:50;;;;;;;3.63;1.10;;;16.00;99.90;;;;;;5052923;28;20612;-49
2023/09/22 11:18:28;;;;;;;1.83;0.90;;;16.00;99.90;;;;;;5053522;28;20183;-50
2023/09/22 11:21:00;;;;;;;2.53;1.10;;;16.00;99.90;;;;;;5053014;28;20226;-47
2023/09/22 11:23:27;;;;;;;2.80;1.10;;;16.00;99.90;;;;;;5053264;28;20234;-49
2023/09/22 11:26:10;;;;;;;1.63;1.00;;;16.00;99.90;;;;;;5053227;28;20203;-51
2023/09/22 11:28:43;;;;;;;3.15;1.20;;;16.00;99.90;;;;;;5053150;28;20168;-48
2023/09/22 11:31:14;;;;;;;1.95;0.90;;;16.00;99.90;;;;;;5053166;28;20186;-49
2023/09/22 11:33:41;;;;;;;2.63;1.00;;;16.00;99.90;;;;;;5053005;28;20213;-49
2023/09/22 11:36:08;;;;;;;3.35;1.00;;;15.90;99.90;;;;;;5053063;28;20191;-50
2023/09/22 11:38:35;;;;;;;3.38;1.20;;;16.10;99.90;;;;;;5053106;28;20171;-49
2023/09/22 11:41:15;;;;;;;4.05;1.20;;;16.10;99.90;;;;;;5053003;28;20639;-50
2023/09/22 11:43:42;;;;;;;2.60;1.20;;;16.10;99.90;;;;;;5052960;28;20159;-48
2023/09/22 11:46:13;;;;;;;1.48;0.90;;;16.10;99.90;;;;;;5052891;28;20175;-50
2023/09/22 11:49:05;;;;;;;2.20;1.33;;;16.20;99.90;;;;;;5052648;28;20254;-47
2023/09/22 11:51:43;;;;;;;5.30;1.38;;;16.30;99.90;;;;;;5051764;28;20195;-49
2023/09/22 11:54:10;;;;;;;3.58;1.30;;;16.20;99.90;;;;;;5052749;28;20175;-47
2023/09/22 11:56:36;;;;;;;2.80;1.23;;;16.20;99.90;;;;;;5052825;28;20175;-49
2023/09/22 11:59:12;;;;;;;3.28;1.17;;;16.20;99.90;;;;;;5052774;28;20609;-53
2023/09/22 12:01:39;;;;;;;1.80;1.15;;;16.20;99.90;;;;;;5052768;28;20631;-48
2023/09/22 12:04:05;;;;;;;3.78;1.30;;;16.20;99.90;;;;;;5052614;28;20182;-46
2023/09/22 12:06:34;;;;;;;2.75;1.20;;;16.30;99.90;;;;;;5052367;28;20176;-49
2023/09/22 12:09:00;;;;;;;3.08;1.08;;;16.30;99.90;;;;;;5052533;28;20179;-48
2023/09/22 12:11:26;;;;;;;2.97;1.35;;;16.30;99.90;;;;;;5052608;28;20175;-49
2023/09/22 12:13:52;;;;;;;2.42;1.15;;;16.30;99.90;;;;;;5052471;28;20205;-47
2023/09/22 12:16:18;;;;;;;3.15;1.20;;;16.20;99.90;;;;;;5052648;28;20172;-47
2023/09/22 12:18:43;;;;;;;3.38;1.30;;;16.30;99.90;;;;;;5052524;28;20176;-48
2023/09/22 12:21:09;;;;;;;2.38;1.20;;;16.30;99.90;;;;;;5052734;28;20249;-52
2023/09/22 12:23:35;;;;;;;2.80;1.35;;;16.50;99.90;;;;;;5052477;28;20248;-47
2023/09/22 12:26:01;;;;;;;3.70;1.30;;;16.70;99.90;;;;;;5052471;28;20182;-49
2023/09/22 12:28:28;;;;;;;2.50;1.20;;;16.80;99.90;;;;;;5055317;28;20172;-47
2023/09/22 12:30:54;;;;;;;1.52;1.00;;;16.90;99.90;;;;;;5056075;28;20210;-51
2023/09/22 12:33:20;;;;;;;2.63;1.08;;;16.90;99.90;;;;;;5056192;28;20175;-47
2023/09/22 12:35:50;;;;;;;2.33;1.30;;;17.00;99.90;;;;;;5056242;28;20182;-47
2023/09/22 12:38:20;;;;;;;2.72;1.23;;;17.10;99.90;;;;;;5056389;28;20498;-49
2023/09/22 12:40:46;;;;;;;3.05;1.35;;;17.20;99.90;;;;;;5056355;28;20171;-48
2023/09/22 12:43:12;;;;;;;1.75;1.02;;;17.30;99.90;;;;;;5056215;28;20556;-47
2023/09/22 12:45:39;;;;;;;2.42;1.02;;;17.20;99.90;;;;;;5055895;28;20184;-48
2023/09/22 12:48:05;;;;;;;2.85;1.13;;;17.20;99.90;;;;;;5056125;28;20192;-47
2023/09/22 12:50:31;;;;;;;2.30;1.10;;;17.20;99.90;;;;;;5056158;28;20195;-47